Veni Vi — LD9966 — position and weather

sailwx.info

Track history (hours):
 
Tides and Currents Weather Stations Pressure Air Temp Water Temp Dewpoint Dewpoint Depression Visibility Wind Speed Wind Dir Waves Ship Positions

Veni Vi

Last reported at 2014-Jul-29 11:09 UTC. Time now 2014-Sep-02 23:49 UTC.
Position N 59°12' E 005°21'.
Warning: this ship's position is 35 days out of date.

Length 13 m.

Type: Sailing vessel. MMSI: 257827490.

Date/timePositionNaut miles runAvg speedWind from/ knotsBaromVisibWave heightAir tempDewpointWater temp
2014-Jul-29 11:09N 59°12' E 005°21'4 6.3
2014-Jul-29 10:33N 59°08' E 005°21'5 5.1
2014-Jul-29 09:33N 59°04' E 005°24'0 0.1
2014-Jul-29 08:32N 59°04' E 005°24'0 0.0
2014-Jul-29 07:32N 59°04' E 005°24'0 0.0
2014-Jul-29 06:32N 59°04' E 005°24'0 0.0
2014-Jul-29 05:32N 59°04' E 005°24'0 0.0
2014-Jul-29 04:32N 59°04' E 005°24'0 0.0
2014-Jul-29 03:32N 59°04' E 005°24'0 0.0
2014-Jul-29 02:32N 59°04' E 005°24'0 0.0
2014-Jul-29 01:32N 59°04' E 005°24'0 0.0
2014-Jul-29 00:32N 59°04' E 005°24'0 0.0
2014-Jul-28 23:32N 59°04' E 005°24'0 0.0
2014-Jul-28 22:32N 59°04' E 005°24'0 0.0
2014-Jul-28 21:32N 59°04' E 005°24'0 0.0
2014-Jul-28 20:32N 59°04' E 005°24'0 0.0
2014-Jul-28 19:32N 59°04' E 005°24'0 0.0
2014-Jul-28 18:32N 59°04' E 005°24'0 0.0
2014-Jul-28 17:32N 59°04' E 005°24'0 0.0
2014-Jul-28 16:32N 59°04' E 005°24'0 0.0
2014-Jul-28 15:32N 59°04' E 005°24'0 0.0
2014-Jul-28 14:32N 59°04' E 005°24'0 0.0
2014-Jul-28 13:32N 59°04' E 005°24'0 0.0
2014-Jul-28 12:32N 59°04' E 005°24'5 4.8
2014-Jul-28 11:33N 58°59' E 005°26'7 7.0
2014-Jul-28 10:29N 58°52' E 005°25'30 7.3
2014-Jul-28 06:24N 58°25' E 005°52'6 7.5
2014-Jul-28 05:33N 58°22' E 006°02'7 7.3
2014-Jul-28 04:33N 58°19' E 006°15'4 0.4
2014-Jul-27 16:30N 58°16' E 006°20'8 7.6
2014-Jul-27 15:29N 58°09' E 006°29'  
2014-Jul-22 12:16N 58°11' E 008°21'1 1.7
2014-Jul-22 11:33N 58°12' E 008°22'3 0.1
2014-Jul-21 10:31N 58°13' E 008°27'7 6.4
2014-Jul-21 09:30N 58°17' E 008°37'4 0.2
2014-Jul-20 12:33N 58°20' E 008°41'  
Track history (hours):
 
Tides and Currents Weather Stations Pressure Air Temp Water Temp Dewpoint Dewpoint Depression Visibility Wind Speed Wind Dir Waves Ship Positions

Veni Vi

Last reported at 2014-Jul-29 11:09 UTC. Time now 2014-Sep-02 23:49 UTC.
Position N 59°12' E 005°21'.
Warning: this ship's position is 35 days out of date.

Length 13 m.

Type: Sailing vessel. MMSI: 257827490.

Date/timePositionNaut miles runAvg speedWind from/ knotsBaromVisibWave heightAir tempDewpointWater temp
2014-Jul-29 11:09N 59°12' E 005°21'4 6.3
2014-Jul-29 10:33N 59°08' E 005°21'5 5.1
2014-Jul-29 09:33N 59°04' E 005°24'0 0.1
2014-Jul-29 08:32N 59°04' E 005°24'0 0.0
2014-Jul-29 07:32N 59°04' E 005°24'0 0.0
2014-Jul-29 06:32N 59°04' E 005°24'0 0.0
2014-Jul-29 05:32N 59°04' E 005°24'0 0.0
2014-Jul-29 04:32N 59°04' E 005°24'0 0.0
2014-Jul-29 03:32N 59°04' E 005°24'0 0.0
2014-Jul-29 02:32N 59°04' E 005°24'0 0.0
2014-Jul-29 01:32N 59°04' E 005°24'0 0.0
2014-Jul-29 00:32N 59°04' E 005°24'0 0.0
2014-Jul-28 23:32N 59°04' E 005°24'0 0.0
2014-Jul-28 22:32N 59°04' E 005°24'0 0.0
2014-Jul-28 21:32N 59°04' E 005°24'0 0.0
2014-Jul-28 20:32N 59°04' E 005°24'0 0.0
2014-Jul-28 19:32N 59°04' E 005°24'0 0.0
2014-Jul-28 18:32N 59°04' E 005°24'0 0.0
2014-Jul-28 17:32N 59°04' E 005°24'0 0.0
2014-Jul-28 16:32N 59°04' E 005°24'0 0.0
2014-Jul-28 15:32N 59°04' E 005°24'0 0.0
2014-Jul-28 14:32N 59°04' E 005°24'0 0.0
2014-Jul-28 13:32N 59°04' E 005°24'0 0.0
2014-Jul-28 12:32N 59°04' E 005°24'5 4.8
2014-Jul-28 11:33N 58°59' E 005°26'7 7.0
2014-Jul-28 10:29N 58°52' E 005°25'30 7.3
2014-Jul-28 06:24N 58°25' E 005°52'6 7.5
2014-Jul-28 05:33N 58°22' E 006°02'7 7.3
2014-Jul-28 04:33N 58°19' E 006°15'4 0.4
2014-Jul-27 16:30N 58°16' E 006°20'8 7.6
2014-Jul-27 15:29N 58°09' E 006°29'  
2014-Jul-22 12:16N 58°11' E 008°21'1 1.7
2014-Jul-22 11:33N 58°12' E 008°22'3 0.1
2014-Jul-21 10:31N 58°13' E 008°27'7 6.4
2014-Jul-21 09:30N 58°17' E 008°37'4 0.2
2014-Jul-20 12:33N 58°20' E 008°41'  

Dump ship's entire track history